CAC6 weather

Calgary (Alberta Children's Hospital)
Calgary, Alberta, Canada

Public forecast

Using degrees Celsius for public forecast. Weather courtesy of forecast.io.

Closest aviation weather report (METAR) to Calgary (Alberta Children's Hospital)

Closest report is Calgary International Airport, 5.3 nm (9.9 km) ENE. Retrieved 2019/12/09 09:00 UTC (58 minutes ago):

CYYC 090900Z 29009KT 10SM BKN064 M02/M09 A2991 RMK SC6 SLP191

Closest aviation forecast (TAF) to Calgary (Alberta Children's Hospital)

Closest forecast is Calgary International Airport, 5.3 nm (9.9 km) ENE. Retrieved 2019/12/09 09:39 UTC (19 minutes ago):

TAF CYYC 090838Z 0909/1006 28008KT P6SM SCT040 BKN080 OVC200 FM091600 30008KT P6SM SCT015 BKN040 OVC080 TEMPO 0916/1004 4SM -SN BKN015 OVC040 BECMG 0922/0924 VRB03KT FM100400 28006KT P6SM BKN025 TEMPO 1004/1006 BKN012 RMK NXT FCST BY 091200Z